KBDE/BDE METAR and TAF weather

Enter ICAO airport designator
Station Type Date Time Source
KBDE METAR 2018/07/20 14:07 UTC NOAA

KBDE 201407Z AUTO 35008KT 5SM BR FEW007 BKN024 OVC090 21/19 A2987 RMK AO2 T02060194


Station Type Date Time Source
KBDE Decoded METAR 2018/07/20 14:07 UTC NOAA

BAUDETTE INTERNATIONAL AIRPORT, MN, United States (KBDE) 48-44N 94-37W 329M
Jul 20, 2018 - 10:07 AM EDT / 2018.07.20 1407 UTC
Wind: from the N (350 degrees) at 9 MPH (8 KT):0
Visibility: 5 mile(s):0
Sky conditions: overcast
Weather: mist
Temperature: 69.1 F (20.6 C)
Dew Point: 66.9 F (19.4 C)
Relative Humidity: 92%
Pressure (altimeter): 29.87 in. Hg (1011 hPa)
ob: KBDE 201407Z AUTO 35008KT 5SM BR FEW007 BKN024 OVC090 21/19 A2987 RMK AO2 T02060194
cycle: 14

Station Type Date Time Source
KBDE TAF UTC NOAA

Error!


Example: see airport list